createdAt,value
2017-11-11T00:00:58.837Z,56.60
2017-11-11T00:03:27.629Z,56.60
2017-11-11T00:05:56.345Z,57.10
2017-11-11T00:08:25.243Z,56.00
2017-11-11T00:10:54.243Z,54.70
2017-11-11T00:13:23.071Z,53.90
2017-11-11T00:15:52.204Z,54.80
2017-11-11T00:18:22.328Z,56.70
2017-11-11T00:20:52.156Z,57.50
2017-11-11T00:23:22.178Z,58.00
2017-11-11T00:25:51.948Z,57.50
2017-11-11T00:28:20.738Z,58.10
2017-11-11T00:30:49.488Z,57.20
2017-11-11T00:33:18.338Z,55.30
2017-11-11T00:35:48.180Z,55.00
2017-11-11T00:38:16.829Z,55.40
2017-11-11T00:40:45.539Z,56.60
2017-11-11T00:43:15.171Z,54.70
2017-11-11T00:45:44.029Z,54.70
2017-11-11T00:48:12.770Z,54.60
2017-11-11T00:50:41.529Z,53.70
2017-11-11T00:53:11.001Z,56.70
2017-11-11T00:55:39.746Z,56.60
2017-11-11T00:58:08.489Z,56.60
2017-11-11T01:00:37.451Z,56.70
2017-11-11T01:03:06.257Z,55.70
2017-11-11T01:05:35.022Z,54.90
2017-11-11T01:08:03.854Z,55.00
2017-11-11T01:10:32.771Z,54.60
2017-11-11T01:13:01.932Z,54.40
2017-11-11T01:15:31.440Z,54.40
2017-11-11T01:18:00.323Z,53.80
2017-11-11T01:20:29.791Z,57.00
2017-11-11T01:22:58.452Z,57.00
2017-11-11T01:25:27.260Z,56.70
2017-11-11T01:27:56.092Z,57.50
2017-11-11T01:30:24.792Z,57.50
2017-11-11T01:32:53.601Z,56.50
2017-11-11T01:35:23.068Z,55.10
2017-11-11T01:37:54.024Z,55.70
2017-11-11T01:40:22.973Z,55.10
2017-11-11T01:42:53.567Z,55.50
2017-11-11T01:45:23.136Z,55.50
2017-11-11T01:47:53.736Z,56.70
2017-11-11T01:50:23.441Z,56.60
2017-11-11T01:52:52.213Z,55.80
2017-11-11T01:55:21.067Z,56.80
2017-11-11T01:57:50.513Z,57.90
2017-11-11T02:00:19.264Z,57.80
2017-11-11T02:02:48.049Z,56.70
2017-11-11T02:05:16.825Z,56.50
2017-11-11T02:07:45.561Z,56.00
2017-11-11T02:10:14.336Z,55.10
2017-11-11T02:12:43.114Z,54.50
2017-11-11T02:15:11.893Z,54.50
2017-11-11T02:17:40.860Z,56.00
2017-11-11T02:20:09.814Z,56.70
2017-11-11T02:22:38.715Z,56.30
2017-11-11T02:25:08.209Z,56.70
2017-11-11T02:27:37.026Z,56.70
2017-11-11T02:30:06.876Z,56.90
2017-11-11T02:32:35.681Z,56.90
2017-11-11T02:35:04.425Z,56.50
2017-11-11T02:37:34.075Z,56.90
2017-11-11T02:40:02.887Z,56.90
2017-11-11T02:42:31.715Z,57.00
2017-11-11T02:45:00.393Z,57.20
2017-11-11T02:47:29.278Z,57.80
2017-11-11T02:49:58.060Z,57.10
2017-11-11T02:52:26.871Z,56.00
2017-11-11T02:54:55.593Z,55.40
2017-11-11T02:57:26.171Z,57.10
2017-11-11T02:59:55.563Z,57.10
2017-11-11T03:02:25.508Z,56.40
2017-11-11T03:04:54.273Z,55.60
2017-11-11T03:07:23.015Z,56.80
2017-11-11T03:09:52.574Z,56.70
2017-11-11T03:12:21.535Z,56.20
2017-11-11T03:14:50.365Z,55.50
2017-11-11T03:17:19.054Z,55.10
2017-11-11T03:19:48.247Z,54.60
2017-11-11T03:22:17.127Z,55.10
2017-11-11T03:24:46.407Z,55.10
2017-11-11T03:27:15.188Z,55.70
2017-11-11T03:29:45.037Z,55.10
2017-11-11T03:32:13.797Z,55.10
2017-11-11T03:34:42.708Z,55.00
2017-11-11T03:37:11.419Z,55.20
2017-11-11T03:39:40.206Z,55.00
2017-11-11T03:42:09.247Z,55.10
2017-11-11T03:44:38.712Z,56.70
2017-11-11T03:47:08.146Z,57.20
2017-11-11T03:49:37.243Z,57.20
2017-11-11T03:52:06.027Z,57.00
2017-11-11T03:54:34.836Z,55.60
2017-11-11T03:57:03.902Z,56.20
2017-11-11T03:59:33.533Z,57.10
2017-11-11T04:02:02.419Z,57.10
2017-11-11T04:04:32.048Z,55.60
2017-11-11T04:07:00.738Z,55.50
2017-11-11T04:09:30.367Z,55.80
2017-11-11T04:11:59.180Z,55.70
2017-11-11T04:14:28.057Z,55.00
2017-11-11T04:16:58.543Z,56.20
2017-11-11T04:19:28.787Z,55.80
2017-11-11T04:21:57.797Z,55.70
2017-11-11T04:24:27.248Z,55.30
2017-11-11T04:26:56.892Z,56.40
2017-11-11T04:29:25.950Z,56.30
2017-11-11T04:31:55.342Z,56.40
2017-11-11T04:34:24.234Z,56.70
2017-11-11T04:36:53.064Z,55.20
2017-11-11T04:39:22.659Z,56.50
2017-11-11T04:41:51.598Z,56.40
2017-11-11T04:44:21.163Z,57.10
2017-11-11T04:46:50.022Z,57.10
2017-11-11T04:49:19.039Z,56.20
2017-11-11T04:51:47.873Z,55.20
2017-11-11T04:54:16.614Z,54.40
2017-11-11T04:56:45.668Z,54.80
2017-11-11T04:59:14.550Z,55.40
2017-11-11T05:01:43.252Z,56.40
2017-11-11T05:04:12.294Z,55.70
2017-11-11T05:06:42.070Z,54.10
2017-11-11T05:09:11.010Z,54.10
2017-11-11T05:11:39.701Z,55.70
2017-11-11T05:14:08.603Z,57.70
2017-11-11T05:16:37.495Z,59.40
2017-11-11T05:19:06.321Z,58.70
2017-11-11T05:21:35.131Z,58.70
2017-11-11T05:24:03.905Z,58.40
2017-11-11T05:26:34.023Z,56.90
2017-11-11T05:29:03.087Z,56.80
2017-11-11T05:31:32.150Z,56.40
2017-11-11T05:34:00.974Z,55.40
2017-11-11T05:36:30.560Z,56.60
2017-11-11T05:38:59.899Z,56.60
2017-11-11T05:41:29.718Z,56.10
2017-11-11T05:43:58.661Z,56.20
2017-11-11T05:46:28.308Z,56.40
2017-11-11T05:48:57.185Z,56.40
2017-11-11T05:51:26.057Z,56.00
2017-11-11T05:53:54.866Z,56.70
2017-11-11T05:56:23.609Z,57.50
2017-11-11T05:58:52.447Z,57.10
2017-11-11T06:01:21.984Z,56.20
2017-11-11T06:03:51.681Z,55.40
2017-11-11T06:06:20.502Z,55.30
2017-11-11T06:08:49.660Z,55.80
2017-11-11T06:11:19.249Z,56.60
2017-11-11T06:13:48.036Z,56.60
2017-11-11T06:16:17.578Z,55.50
2017-11-11T06:18:46.368Z,55.50
2017-11-11T06:21:15.113Z,54.90
2017-11-11T06:23:44.003Z,55.90
2017-11-11T06:26:12.709Z,55.60
2017-11-11T06:28:41.420Z,55.00
2017-11-11T06:31:10.127Z,54.40
2017-11-11T06:33:39.839Z,56.20
2017-11-11T06:36:09.458Z,56.80
2017-11-11T06:38:38.229Z,56.80
2017-11-11T06:41:07.417Z,56.60
2017-11-11T06:43:36.316Z,55.80
2017-11-11T06:46:05.075Z,54.80
2017-11-11T06:48:33.914Z,55.80
2017-11-11T06:51:02.638Z,55.40
2017-11-11T06:53:31.366Z,55.50
2017-11-11T06:56:01.150Z,56.30
2017-11-11T06:58:31.206Z,55.10
2017-11-11T07:01:01.065Z,55.00
2017-11-11T07:03:29.990Z,55.20
2017-11-11T07:05:59.482Z,56.00
2017-11-11T07:08:28.399Z,55.90
2017-11-11T07:10:57.305Z,54.60
2017-11-11T07:13:26.030Z,53.80
2017-11-11T07:15:59.338Z,53.80
2017-11-11T07:18:28.115Z,54.30
2017-11-11T07:20:57.717Z,54.60
2017-11-11T07:23:26.448Z,54.50
2017-11-11T07:25:55.386Z,54.40
2017-11-11T07:28:25.251Z,55.10
2017-11-11T07:30:54.333Z,55.10
2017-11-11T07:33:23.480Z,56.10
2017-11-11T07:35:53.092Z,54.40
2017-11-11T07:38:21.968Z,55.10
2017-11-11T07:40:50.808Z,54.60
2017-11-11T07:43:19.696Z,54.50
2017-11-11T07:45:48.662Z,53.50
2017-11-11T07:48:18.120Z,52.80
2017-11-11T07:50:46.867Z,52.80
2017-11-11T07:53:15.706Z,53.30
2017-11-11T07:55:44.622Z,52.60
2017-11-11T07:58:13.782Z,53.00
2017-11-11T08:00:43.677Z,54.50
2017-11-11T08:03:12.452Z,53.80
2017-11-11T08:05:41.221Z,53.40
2017-11-11T08:08:10.024Z,53.10
2017-11-11T08:10:38.742Z,53.50
2017-11-11T08:13:07.468Z,53.70
2017-11-11T08:15:36.277Z,53.70
2017-11-11T08:18:05.059Z,54.40
2017-11-11T08:20:33.849Z,53.70
2017-11-11T08:23:02.784Z,52.80
2017-11-11T08:25:32.650Z,52.70
2017-11-11T08:28:02.730Z,52.80
2017-11-11T08:30:32.881Z,52.60
2017-11-11T08:33:02.708Z,53.20
2017-11-11T08:35:31.958Z,53.10
2017-11-11T08:38:01.716Z,52.60
2017-11-11T08:40:30.540Z,52.60
2017-11-11T08:42:59.287Z,52.90
2017-11-11T08:45:28.055Z,53.20
2017-11-11T08:47:56.970Z,53.00
2017-11-11T08:50:26.221Z,52.20
2017-11-11T08:52:55.043Z,52.60
2017-11-11T08:55:24.947Z,51.20
2017-11-11T08:57:54.205Z,51.20
2017-11-11T09:00:26.198Z,51.90
2017-11-11T09:02:55.047Z,53.20
2017-11-11T09:05:23.851Z,53.10
2017-11-11T09:07:52.732Z,53.50
2017-11-11T09:10:21.478Z,53.10
2017-11-11T09:12:50.486Z,52.20
2017-11-11T09:15:19.401Z,51.30
2017-11-11T09:17:48.401Z,50.70
2017-11-11T09:20:17.989Z,50.80
2017-11-11T09:22:50.880Z,50.80
2017-11-11T09:25:19.701Z,51.00
2017-11-11T09:27:48.502Z,51.50
2017-11-11T09:30:17.284Z,50.10
2017-11-11T09:32:46.161Z,50.00
2017-11-11T09:35:15.904Z,49.70
2017-11-11T09:37:46.364Z,49.90
2017-11-11T19:38:27.738Z,65.50
2017-11-11T19:40:56.834Z,63.40
2017-11-11T19:43:26.615Z,57.80
2017-11-11T19:45:55.724Z,57.60
2017-11-11T19:48:25.240Z,56.00
2017-11-11T19:50:54.333Z,56.00
2017-11-11T19:53:25.029Z,56.50
2017-11-11T19:55:54.484Z,56.30
2017-11-11T19:58:24.978Z,56.20
2017-11-11T20:00:54.388Z,56.00
2017-11-11T20:03:23.164Z,55.70
2017-11-11T20:05:52.234Z,55.60
2017-11-11T20:08:21.009Z,55.60
2017-11-11T20:10:49.732Z,55.40
2017-11-11T20:13:19.379Z,55.30
2017-11-11T20:15:48.180Z,54.90
2017-11-11T20:18:16.963Z,54.60
2017-11-11T20:20:45.616Z,55.20
2017-11-11T20:23:14.407Z,55.90
2017-11-11T20:25:44.006Z,56.10
2017-11-11T20:28:12.746Z,56.30
2017-11-11T20:30:41.507Z,56.30
2017-11-11T20:33:11.076Z,57.40
2017-11-11T20:35:39.784Z,57.40
2017-11-11T20:38:08.669Z,57.30
2017-11-11T20:40:37.438Z,56.60
2017-11-11T20:43:06.407Z,56.00
2017-11-11T20:45:35.488Z,56.10
2017-11-11T20:48:04.396Z,57.00
2017-11-11T20:50:33.378Z,56.30
2017-11-11T20:53:03.761Z,55.90
2017-11-11T20:55:32.507Z,55.70
2017-11-11T20:58:01.337Z,55.40
2017-11-11T21:00:30.918Z,55.80
2017-11-11T21:02:59.948Z,55.70
2017-11-11T21:05:28.809Z,55.80
2017-11-11T21:07:58.154Z,55.50
2017-11-11T21:10:27.004Z,55.00
2017-11-11T21:12:56.585Z,55.80
2017-11-11T21:15:25.788Z,55.80
2017-11-11T21:17:55.087Z,55.90
2017-11-11T21:20:25.921Z,55.70
2017-11-11T21:22:55.418Z,55.90
2017-11-11T21:25:25.349Z,55.30
2017-11-11T21:27:56.102Z,56.50
2017-11-11T21:30:25.348Z,56.50
2017-11-11T21:32:56.494Z,56.70
2017-11-11T21:35:25.736Z,56.70
2017-11-11T21:37:55.410Z,56.50
2017-11-11T21:40:25.521Z,56.10
2017-11-11T21:42:55.166Z,55.80
2017-11-11T21:45:24.093Z,55.80
2017-11-11T21:47:53.133Z,55.90
2017-11-11T21:50:22.073Z,55.60
2017-11-11T21:52:50.867Z,55.40
2017-11-11T21:55:19.648Z,56.30
2017-11-11T21:57:48.541Z,56.70
2017-11-11T22:00:17.471Z,57.00
2017-11-11T22:02:46.991Z,56.90
2017-11-11T22:05:16.678Z,55.30
2017-11-11T22:07:45.728Z,55.20
2017-11-11T22:10:14.765Z,54.60
2017-11-11T22:12:43.875Z,55.40
2017-11-11T22:15:12.830Z,55.30
2017-11-11T22:17:41.717Z,54.50
2017-11-11T22:20:10.725Z,54.60
2017-11-11T22:22:39.949Z,55.30
2017-11-11T22:25:09.603Z,55.10
2017-11-11T22:27:38.576Z,55.30
2017-11-11T22:30:07.550Z,56.20
2017-11-11T22:32:37.411Z,56.70
2017-11-11T22:35:06.239Z,56.70
2017-11-11T22:37:35.985Z,56.50
2017-11-11T22:40:05.425Z,56.50
2017-11-11T22:42:34.249Z,56.50
2017-11-11T22:45:03.380Z,55.80
2017-11-11T22:47:32.199Z,56.40
2017-11-11T22:50:02.603Z,56.00
2017-11-11T22:52:31.412Z,56.00
2017-11-11T22:55:00.437Z,54.80
2017-11-11T22:57:29.297Z,55.00
2017-11-11T22:59:58.190Z,55.30
2017-11-11T23:02:27.646Z,55.00
2017-11-11T23:04:57.264Z,54.50
2017-11-11T23:07:26.184Z,54.40
2017-11-11T23:09:55.800Z,55.30
2017-11-11T23:12:25.548Z,55.70
2017-11-11T23:14:54.277Z,55.00
2017-11-11T23:17:24.045Z,56.70
2017-11-11T23:19:52.889Z,56.10
2017-11-11T23:22:21.975Z,55.80
2017-11-11T23:27:36.050Z,54.60
2017-11-11T23:30:05.630Z,56.60
2017-11-11T23:32:34.438Z,56.50
2017-11-11T23:35:03.215Z,57.60
2017-11-11T23:37:31.955Z,56.70
2017-11-11T23:40:00.796Z,57.10
2017-11-11T23:42:30.315Z,58.60
2017-11-11T23:44:59.476Z,58.50
2017-11-11T23:47:28.959Z,58.20
2017-11-11T23:49:58.879Z,56.50
2017-11-11T23:52:27.760Z,56.50
2017-11-11T23:54:56.939Z,56.80
2017-11-11T23:57:26.071Z,55.90
2017-11-11T23:59:55.693Z,55.10
